Time;durP1;ratioP1;P1;durP2;ratioP2;P2;SDS_P1;SDS_P2;PMS_P1;PMS_P2;Temp;Humidity;BMP_temperature;BMP_pressure;BME280_temperature;BME280_humidity;BME280_pressure;Samples;Min_cycle;Max_cycle;Signal;HPM_P1;HPM_P2
2023/12/23 00:01:16;;;;;;;2.90;1.23;;;8.00;1.00;;;;;;5048823;28;20040;-77
2023/12/23 00:03:42;;;;;;;1.50;0.70;;;8.00;1.00;;;;;;5049443;28;20125;-76
2023/12/23 00:06:07;;;;;;;1.00;1.00;;;8.00;1.00;;;;;;5049744;28;20043;-76
2023/12/23 00:08:33;;;;;;;0.73;0.73;;;8.10;1.00;;;;;;5045059;28;20044;-77
2023/12/23 00:10:59;;;;;;;0.55;0.50;;;8.10;1.00;;;;;;5047390;28;20032;-76
2023/12/23 00:13:24;;;;;;;0.70;0.70;;;8.00;1.00;;;;;;5048863;28;20103;-76
2023/12/23 00:15:50;;;;;;;0.60;0.60;;;8.00;1.00;;;;;;5047152;28;20036;-77
2023/12/23 00:18:16;;;;;;;0.73;0.73;;;8.00;1.00;;;;;;5051384;28;20023;-76
2023/12/23 00:20:41;;;;;;;0.88;0.88;;;8.00;1.00;;;;;;5047521;28;20051;-77
2023/12/23 00:23:07;;;;;;;0.73;0.60;;;8.00;1.00;;;;;;5050390;28;20033;-77
2023/12/23 00:25:32;;;;;;;0.90;0.80;;;7.90;1.00;;;;;;5059100;28;20021;-76
2023/12/23 00:27:58;;;;;;;0.77;0.73;;;7.90;15.90;;;;;;5051009;28;20025;-77
2023/12/23 00:30:24;;;;;;;0.40;0.40;;;8.00;6.30;;;;;;5051369;28;20468;-77
2023/12/23 00:32:50;;;;;;;0.50;0.50;;;8.00;1.00;;;;;;5051087;28;20029;-77
2023/12/23 00:35:17;;;;;;;0.65;0.65;;;7.90;21.50;;;;;;5051285;28;20024;-77
2023/12/23 00:37:43;;;;;;;0.60;0.60;;;7.90;55.30;;;;;;5050783;28;20053;-77
2023/12/23 00:40:09;;;;;;;1.77;0.70;;;7.80;99.90;;;;;;5051245;28;20047;-77
2023/12/23 00:42:36;;;;;;;1.30;0.82;;;7.80;99.90;;;;;;5051133;28;20021;-77
2023/12/23 00:45:02;;;;;;;1.10;0.90;;;7.70;99.90;;;;;;5051116;28;20395;-77
2023/12/23 00:47:27;;;;;;;0.80;0.80;;;7.70;99.90;;;;;;5049713;28;20025;-77
2023/12/23 00:49:53;;;;;;;0.70;0.70;;;7.60;99.90;;;;;;5051086;28;20036;-77
2023/12/23 00:52:19;;;;;;;1.10;0.98;;;7.60;99.90;;;;;;5050940;28;20498;-77
2023/12/23 00:54:44;;;;;;;1.00;1.00;;;7.60;99.90;;;;;;5047370;28;20025;-76
2023/12/23 00:57:10;;;;;;;1.60;0.73;;;7.60;99.90;;;;;;5050838;28;20033;-76
2023/12/23 00:59:36;;;;;;;0.70;0.70;;;7.60;99.90;;;;;;5051229;28;20044;-77
2023/12/23 01:02:01;;;;;;;0.60;0.60;;;7.70;70.90;;;;;;5049693;28;20124;-77
2023/12/23 01:04:27;;;;;;;0.77;0.60;;;7.70;37.40;;;;;;5050893;28;20029;-76
2023/12/23 01:06:53;;;;;;;0.50;0.50;;;7.80;21.90;;;;;;5051017;28;20468;-77
2023/12/23 01:09:18;;;;;;;2.08;0.70;;;7.80;24.70;;;;;;5049683;28;20494;-77
2023/12/23 01:11:44;;;;;;;0.80;0.80;;;7.80;61.20;;;;;;5050866;28;20024;-77
2023/12/23 01:14:10;;;;;;;0.63;0.63;;;7.70;99.90;;;;;;5060643;28;20494;-76
2023/12/23 01:16:35;;;;;;;0.80;0.80;;;7.70;99.90;;;;;;5054398;28;20475;-77
2023/12/23 01:19:01;;;;;;;2.15;0.52;;;7.70;99.90;;;;;;5054516;28;20023;-76
2023/12/23 01:21:26;;;;;;;0.73;0.73;;;7.60;99.90;;;;;;5053852;28;20025;-77
2023/12/23 01:23:52;;;;;;;1.60;0.60;;;7.60;99.90;;;;;;5054574;28;20013;-77
2023/12/23 01:26:18;;;;;;;0.52;0.52;;;7.60;99.90;;;;;;5054457;28;20490;-76
2023/12/23 01:28:43;;;;;;;0.82;0.82;;;7.60;99.90;;;;;;5054297;28;20074;-77
2023/12/23 01:31:09;;;;;;;1.75;0.70;;;7.40;99.90;;;;;;5052900;28;20029;-77
2023/12/23 01:33:35;;;;;;;0.63;0.63;;;7.40;99.90;;;;;;5052284;28;20017;-76
2023/12/23 01:36:02;;;;;;;0.73;0.73;;;7.30;99.90;;;;;;5054283;28;20070;-77
2023/12/23 01:38:28;;;;;;;0.65;0.65;;;7.20;99.90;;;;;;5054166;28;20116;-77
2023/12/23 01:40:54;;;;;;;0.70;0.70;;;7.20;99.90;;;;;;5050229;28;20119;-77
2023/12/23 01:43:19;;;;;;;0.80;0.80;;;7.20;99.90;;;;;;5054222;28;20059;-77
2023/12/23 01:45:45;;;;;;;0.63;0.63;;;7.10;99.90;;;;;;5054093;28;20132;-77
2023/12/23 01:48:12;;;;;;;2.45;1.08;;;7.20;99.90;;;;;;5052888;28;20368;-77
2023/12/23 01:50:38;;;;;;;0.70;0.70;;;6.90;99.90;;;;;;5053783;28;20491;-77
2023/12/23 01:53:04;;;;;;;0.50;0.50;;;6.90;99.90;;;;;;5053848;28;20375;-77
2023/12/23 01:55:31;;;;;;;0.55;0.55;;;6.80;99.90;;;;;;5054149;28;20036;-77
2023/12/23 01:57:57;;;;;;;1.50;0.60;;;6.80;99.90;;;;;;5051634;28;20072;-77
2023/12/23 02:00:23;;;;;;;0.65;0.65;;;6.90;99.90;;;;;;5053869;28;20025;-77
2023/12/23 02:02:49;;;;;;;0.45;0.45;;;6.90;99.90;;;;;;5053744;28;20067;-77
2023/12/23 02:05:15;;;;;;;0.47;0.47;;;7.00;99.90;;;;;;5053699;28;20121;-76
2023/12/23 02:07:45;;;;;;;0.50;0.50;;;7.00;99.90;;;;;;5053375;28;20055;-77
2023/12/23 02:10:13;;;;;;;0.88;0.60;;;7.00;99.90;;;;;;5049792;28;20021;-77
2023/12/23 02:12:51;;;;;;;0.50;0.50;;;7.10;99.90;;;;;;5053574;28;20031;-77
2023/12/23 02:15:18;;;;;;;1.02;0.60;;;7.00;99.90;;;;;;5049850;28;20467;-77
2023/12/23 02:17:44;;;;;;;0.50;0.50;;;6.90;99.90;;;;;;5053307;28;20028;-77
2023/12/23 02:20:10;;;;;;;2.72;0.63;;;6.80;99.90;;;;;;5053466;28;20025;-77
2023/12/23 02:22:35;;;;;;;1.25;0.63;;;6.70;99.90;;;;;;5046843;28;20053;-76
2023/12/23 02:25:01;;;;;;;0.50;0.50;;;6.60;99.90;;;;;;5060308;28;20025;-77
2023/12/23 02:27:30;;;;;;;0.50;0.50;;;6.70;99.90;;;;;;5053267;28;20048;-77
2023/12/23 02:29:58;;;;;;;1.20;0.65;;;6.60;99.90;;;;;;5053447;28;20482;-77
2023/12/23 02:32:26;;;;;;;0.63;0.63;;;6.40;1.00;;;;;;5053335;28;20033;-77
2023/12/23 02:34:53;;;;;;;0.47;0.47;;;6.40;1.00;;;;;;5053222;28;20048;-77
2023/12/23 02:37:19;;;;;;;0.47;0.47;;;6.50;1.00;;;;;;5053456;28;20017;-77
2023/12/23 02:39:44;;;;;;;2.30;0.50;;;6.40;1.00;;;;;;5049434;28;20052;-77
2023/12/23 02:42:10;;;;;;;0.43;0.43;;;6.50;1.00;;;;;;5053042;28;20032;-77
2023/12/23 02:44:36;;;;;;;0.60;0.60;;;6.60;99.90;;;;;;5053145;28;20029;-77
2023/12/23 02:47:01;;;;;;;1.00;0.63;;;6.70;99.90;;;;;;5051507;28;20479;-77
2023/12/23 02:49:27;;;;;;;1.75;0.50;;;6.50;99.90;;;;;;5052878;28;20029;-77
2023/12/23 02:51:53;;;;;;;0.55;0.55;;;6.30;1.00;;;;;;5048314;28;20025;-76
2023/12/23 02:54:18;;;;;;;0.50;0.50;;;6.30;1.00;;;;;;5052917;28;20092;-77
2023/12/23 02:56:44;;;;;;;0.65;0.40;;;6.40;1.00;;;;;;5052685;28;20017;-77
2023/12/23 02:59:10;;;;;;;0.40;0.40;;;6.40;1.00;;;;;;5052723;28;20111;-77
2023/12/23 03:01:54;;;;;;;0.40;0.40;;;6.50;1.00;;;;;;5052709;28;20127;-76
2023/12/23 03:04:19;;;;;;;1.75;0.47;;;6.50;1.00;;;;;;5051285;28;20036;-77
2023/12/23 03:06:45;;;;;;;0.60;0.60;;;6.50;1.00;;;;;;5054202;28;20021;-77
2023/12/23 03:09:11;;;;;;;0.50;0.50;;;6.50;1.00;;;;;;5050757;28;20498;-76
2023/12/23 03:11:37;;;;;;;0.80;0.47;;;6.40;1.00;;;;;;5050854;28;20075;-76
2023/12/23 03:14:03;;;;;;;0.93;0.50;;;6.30;1.00;;;;;;5052441;28;20086;-77
2023/12/23 03:16:33;;;;;;;0.65;0.30;;;6.40;1.00;;;;;;5052235;28;20179;-76
2023/12/23 03:19:00;;;;;;;0.40;0.40;;;6.40;1.00;;;;;;5052258;28;20029;-77
2023/12/23 03:21:26;;;;;;;0.52;0.40;;;6.40;1.00;;;;;;5052141;28;20063;-77
2023/12/23 03:23:52;;;;;;;0.40;0.40;;;6.50;1.00;;;;;;5052348;28;20025;-77
2023/12/23 03:26:18;;;;;;;0.40;0.40;;;6.50;99.90;;;;;;5051891;28;20414;-77
2023/12/23 03:28:43;;;;;;;0.40;0.30;;;6.50;1.00;;;;;;5052047;28;20114;-76
2023/12/23 03:31:09;;;;;;;0.45;0.45;;;6.50;99.90;;;;;;5052003;28;20029;-77
2023/12/23 03:33:35;;;;;;;1.00;0.50;;;6.60;1.00;;;;;;5050828;28;20025;-76
2023/12/23 03:36:01;;;;;;;0.88;0.47;;;6.70;99.90;;;;;;5052744;28;20025;-77
2023/12/23 03:38:26;;;;;;;0.60;0.60;;;6.70;99.90;;;;;;5051828;28;20417;-77
2023/12/23 03:40:52;;;;;;;0.30;0.30;;;6.80;99.90;;;;;;5046853;28;20116;-77
2023/12/23 03:43:18;;;;;;;1.17;0.40;;;6.80;99.90;;;;;;5051598;28;20063;-77
2023/12/23 03:45:43;;;;;;;0.30;0.30;;;6.90;99.90;;;;;;5051775;28;20048;-76
2023/12/23 03:48:09;;;;;;;0.30;0.30;;;6.90;99.90;;;;;;5051582;28;20075;-76
2023/12/23 03:50:35;;;;;;;0.40;0.30;;;7.00;99.90;;;;;;5051854;28;20498;-76
2023/12/23 03:53:01;;;;;;;0.30;0.30;;;7.10;99.90;;;;;;5051576;28;20119;-77
2023/12/23 03:55:32;;;;;;;0.40;0.40;;;7.20;99.90;;;;;;5051717;28;20307;-77
2023/12/23 03:58:01;;;;;;;0.32;0.30;;;7.30;99.90;;;;;;5049307;28;20017;-77
2023/12/23 04:00:27;;;;;;;0.50;0.50;;;7.30;99.90;;;;;;5051899;28;21144;-77
2023/12/23 04:02:53;;;;;;;0.30;0.30;;;7.30;99.90;;;;;;5051478;28;20033;-76
2023/12/23 04:05:19;;;;;;;0.38;0.38;;;7.30;99.90;;;;;;5051582;28;20127;-77
2023/12/23 04:07:51;;;;;;;0.30;0.30;;;7.40;99.90;;;;;;5047793;28;20522;-77
2023/12/23 04:10:17;;;;;;;1.17;0.40;;;7.50;99.90;;;;;;5044071;28;20025;-76
2023/12/23 04:12:43;;;;;;;0.22;0.22;;;7.50;99.90;;;;;;5051264;28;20024;-77
2023/12/23 04:15:09;;;;;;;1.88;0.30;;;7.40;99.90;;;;;;5051546;28;20051;-77
2023/12/23 04:17:35;;;;;;;0.50;0.50;;;7.30;99.90;;;;;;5050417;28;20475;-77
2023/12/23 04:20:01;;;;;;;1.88;0.30;;;7.30;99.90;;;;;;5051457;28;20025;-77
2023/12/23 04:22:27;;;;;;;0.38;0.28;;;7.30;99.90;;;;;;5051290;28;20040;-77
2023/12/23 04:24:53;;;;;;;0.90;0.40;;;7.20;99.90;;;;;;5051350;28;20018;-77
2023/12/23 04:27:19;;;;;;;0.77;0.47;;;7.10;99.90;;;;;;5041024;28;20041;-77
2023/12/23 04:29:45;;;;;;;0.52;0.50;;;7.20;99.90;;;;;;5051313;28;20524;-77
2023/12/23 04:32:10;;;;;;;0.45;0.45;;;7.30;99.90;;;;;;5051237;28;20012;-77
2023/12/23 04:34:39;;;;;;;0.47;0.40;;;7.40;94.80;;;;;;5051329;28;20023;-77
2023/12/23 04:37:05;;;;;;;0.30;0.30;;;7.40;99.90;;;;;;5048285;28;20014;-77
2023/12/23 04:39:31;;;;;;;0.30;0.30;;;7.10;99.90;;;;;;5049653;28;20372;-76
2023/12/23 04:41:56;;;;;;;0.43;0.43;;;7.00;99.90;;;;;;5051213;28;20364;-77
2023/12/23 04:44:22;;;;;;;1.05;0.32;;;7.20;99.90;;;;;;5051322;28;20032;-77
2023/12/23 04:46:48;;;;;;;0.40;0.40;;;7.10;99.90;;;;;;5051040;28;20056;-77
2023/12/23 04:49:14;;;;;;;0.57;0.35;;;7.10;99.90;;;;;;5053184;28;20029;-77
2023/12/23 04:51:43;;;;;;;0.30;0.30;;;7.10;99.90;;;;;;5055111;28;20017;-77
2023/12/23 04:54:10;;;;;;;2.88;0.32;;;7.10;99.90;;;;;;5055296;28;20021;-77
2023/12/23 04:56:36;;;;;;;0.75;0.15;;;7.30;80.90;;;;;;5050430;28;20033;-77
2023/12/23 04:59:02;;;;;;;0.40;0.40;;;7.30;41.00;;;;;;5054566;28;20033;-77
2023/12/23 05:01:27;;;;;;;0.20;0.20;;;7.40;1.00;;;;;;5053007;28;20025;-77
2023/12/23 05:03:53;;;;;;;0.30;0.30;;;7.40;1.00;;;;;;5054828;28;20029;-76
2023/12/23 05:06:19;;;;;;;0.17;0.17;;;7.40;1.00;;;;;;5055163;28;20029;-77
2023/12/23 05:08:44;;;;;;;1.45;0.30;;;7.50;1.00;;;;;;5054397;28;20028;-76
2023/12/23 05:11:10;;;;;;;0.70;0.40;;;7.50;1.00;;;;;;5050759;28;20013;-77
2023/12/23 05:13:36;;;;;;;0.30;0.30;;;7.70;99.90;;;;;;5054040;28;20053;-76
2023/12/23 05:16:02;;;;;;;0.30;0.30;;;7.80;1.00;;;;;;5054458;28;20402;-77
2023/12/23 05:18:28;;;;;;;0.40;0.30;;;7.80;99.90;;;;;;5054010;28;20024;-77
2023/12/23 05:20:53;;;;;;;0.38;0.38;;;7.90;99.90;;;;;;5054360;28;20029;-77
2023/12/23 05:23:19;;;;;;;1.05;0.30;;;8.00;99.90;;;;;;5053130;28;20029;-76
2023/12/23 05:25:45;;;;;;;0.25;0.25;;;8.10;99.90;;;;;;5052348;28;20035;-76
2023/12/23 05:28:11;;;;;;;0.20;0.20;;;8.20;99.90;;;;;;5047964;28;20491;-77
2023/12/23 05:30:36;;;;;;;3.55;0.20;;;8.30;99.90;;;;;;5054486;28;20025;-77
2023/12/23 05:33:02;;;;;;;0.98;0.40;;;8.40;99.90;;;;;;5054419;28;20272;-77
2023/12/23 05:35:28;;;;;;;4.53;0.70;;;8.40;99.90;;;;;;5054225;28;20021;-77
2023/12/23 05:37:54;;;;;;;3.50;0.95;;;8.50;99.90;;;;;;5055743;28;20028;-77
2023/12/23 05:40:19;;;;;;;0.20;0.20;;;8.50;97.20;;;;;;5050480;28;20029;-77
2023/12/23 05:42:45;;;;;;;0.47;0.22;;;8.50;99.90;;;;;;5058436;28;20272;-76
2023/12/23 05:45:11;;;;;;;0.45;0.30;;;8.60;99.90;;;;;;5052700;28;20044;-76
2023/12/23 05:47:37;;;;;;;0.40;0.40;;;8.60;80.30;;;;;;5051546;28;20044;-77
2023/12/23 05:50:03;;;;;;;5.70;1.55;;;8.60;99.90;;;;;;5053825;28;20029;-77
2023/12/23 05:52:29;;;;;;;0.30;0.30;;;8.60;53.90;;;;;;5053891;28;20532;-77
2023/12/23 05:54:55;;;;;;;0.60;0.43;;;8.70;19.40;;;;;;5054072;28;20013;-77
2023/12/23 05:57:21;;;;;;;0.65;0.60;;;8.80;12.60;;;;;;5053830;28;20021;-77
2023/12/23 05:59:47;;;;;;;3.78;0.52;;;8.80;1.00;;;;;;5053019;28;20036;-77
2023/12/23 06:02:12;;;;;;;0.30;0.30;;;8.90;1.00;;;;;;5053496;28;20114;-77
2023/12/23 06:04:38;;;;;;;0.60;0.40;;;8.90;1.00;;;;;;5053787;28;20471;-77
2023/12/23 06:07:04;;;;;;;2.45;0.80;;;8.90;1.00;;;;;;5054422;28;20467;-77
2023/12/23 06:09:29;;;;;;;6.90;0.60;;;8.90;1.00;;;;;;5049889;28;20448;-77
2023/12/23 06:11:55;;;;;;;3.65;0.35;;;9.00;1.00;;;;;;5053854;28;20017;-77
2023/12/23 06:14:21;;;;;;;3.55;0.70;;;9.00;1.00;;;;;;5053610;28;20059;-77
2023/12/23 06:16:46;;;;;;;2.63;0.50;;;9.00;1.00;;;;;;5053362;28;20040;-77
2023/12/23 06:19:12;;;;;;;0.52;0.40;;;9.00;1.00;;;;;;5053406;28;20033;-77
2023/12/23 06:21:45;;;;;;;0.70;0.70;;;9.00;1.00;;;;;;5053310;28;20431;-77
2023/12/23 06:24:11;;;;;;;0.50;0.50;;;9.00;1.00;;;;;;5048126;28;20029;-76
2023/12/23 06:26:37;;;;;;;0.70;0.43;;;9.00;1.00;;;;;;5048889;28;20624;-76
2023/12/23 06:29:02;;;;;;;0.88;0.57;;;9.00;1.00;;;;;;5053320;28;20108;-77
2023/12/23 06:31:28;;;;;;;0.30;0.30;;;9.10;1.00;;;;;;5053108;28;20024;-77
2023/12/23 06:33:54;;;;;;;0.38;0.38;;;9.20;1.00;;;;;;5053174;28;20108;-76
2023/12/23 06:36:20;;;;;;;0.40;0.40;;;9.30;1.00;;;;;;5052627;28;20040;-76
2023/12/23 06:38:45;;;;;;;0.52;0.52;;;9.40;1.00;;;;;;5052090;28;20036;-76
2023/12/23 06:41:12;;;;;;;1.15;0.60;;;9.40;1.00;;;;;;5052988;28;20024;-77
2023/12/23 06:43:38;;;;;;;0.40;0.40;;;9.50;1.00;;;;;;5053092;28;20105;-77
2023/12/23 06:46:04;;;;;;;1.75;0.30;;;9.50;1.00;;;;;;5052750;28;20547;-77
2023/12/23 06:48:29;;;;;;;1.42;0.52;;;9.80;1.00;;;;;;5052659;28;20025;-77
2023/12/23 06:50:55;;;;;;;0.45;0.40;;;9.90;1.00;;;;;;5052925;28;20025;-77
2023/12/23 06:53:21;;;;;;;1.75;0.25;;;9.90;1.00;;;;;;5051544;28;20116;-76
2023/12/23 06:55:46;;;;;;;2.38;1.10;;;10.00;1.00;;;;;;5052862;28;20024;-77
2023/12/23 06:58:12;;;;;;;4.43;0.80;;;10.00;1.00;;;;;;5052449;28;20082;-77
2023/12/23 07:00:38;;;;;;;2.08;0.50;;;9.90;1.00;;;;;;5050183;28;20502;-76
2023/12/23 07:03:05;;;;;;;1.75;0.90;;;10.10;1.00;;;;;;5052607;28;20021;-76
2023/12/23 07:05:31;;;;;;;9.52;1.52;;;10.00;1.00;;;;;;5051165;28;20493;-77
2023/12/23 07:07:56;;;;;;;1.17;1.00;;;10.10;1.00;;;;;;5053796;28;20060;-76
2023/12/23 07:10:22;;;;;;;4.78;2.10;;;10.00;1.00;;;;;;5048209;28;20479;-77
2023/12/23 07:12:48;;;;;;;4.47;2.30;;;9.80;1.00;;;;;;5048814;28;20032;-77
2023/12/23 07:15:13;;;;;;;6.53;4.45;;;9.50;1.00;;;;;;5052518;28;20491;-76
2023/12/23 07:17:39;;;;;;;7.22;4.47;;;9.00;99.90;;;;;;5052045;28;20017;-77
2023/12/23 07:20:07;;;;;;;8.95;3.50;;;8.70;99.90;;;;;;5051028;28;20035;-77
2023/12/23 07:22:32;;;;;;;8.27;3.08;;;8.50;99.90;;;;;;5050907;28;20391;-77
2023/12/23 07:24:58;;;;;;;12.98;3.40;;;8.30;99.90;;;;;;5052284;28;20029;-77
2023/12/23 07:27:24;;;;;;;5.00;3.40;;;8.20;99.90;;;;;;5051253;28;20028;-77
2023/12/23 07:29:49;;;;;;;4.03;3.40;;;8.10;1.00;;;;;;5052033;28;20025;-77
2023/12/23 07:32:15;;;;;;;9.70;3.53;;;8.00;99.90;;;;;;5051544;28;20536;-77
2023/12/23 07:34:41;;;;;;;10.52;2.85;;;7.90;1.00;;;;;;5050644;28;20504;-77
2023/12/23 07:37:08;;;;;;;13.13;3.25;;;7.90;99.90;;;;;;5051186;28;20024;-77
2023/12/23 07:39:33;;;;;;;6.40;3.83;;;8.00;99.90;;;;;;5048071;28;20116;-77
2023/12/23 07:42:00;;;;;;;5.43;3.53;;;8.00;99.90;;;;;;5051866;28;20104;-77
2023/12/23 07:44:26;;;;;;;5.40;3.10;;;8.00;1.00;;;;;;5052008;28;20059;-76
2023/12/23 07:46:52;;;;;;;10.85;2.65;;;7.90;1.00;;;;;;5051550;28;20045;-77
2023/12/23 07:49:18;;;;;;;5.35;1.77;;;8.10;99.90;;;;;;5051792;28;20041;-77
2023/12/23 07:51:45;;;;;;;4.32;1.20;;;8.30;99.90;;;;;;5051683;28;20631;-77
2023/12/23 07:54:11;;;;;;;6.00;1.70;;;8.50;99.90;;;;;;5051886;28;20108;-76
2023/12/23 07:56:37;;;;;;;0.90;0.90;;;8.60;99.90;;;;;;5051604;28;20056;-77
2023/12/23 07:59:02;;;;;;;3.50;1.85;;;8.90;45.10;;;;;;5051818;28;20053;-77
2023/12/23 08:01:28;;;;;;;7.93;3.00;;;9.00;99.90;;;;;;5051829;28;20021;-77
2023/12/23 08:03:55;;;;;;;4.22;3.13;;;9.00;99.90;;;;;;5047061;28;20025;-77
2023/12/23 08:06:22;;;;;;;9.07;3.38;;;9.00;1.00;;;;;;5051947;28;20021;-77
2023/12/23 08:08:48;;;;;;;2.47;2.22;;;8.90;1.00;;;;;;5049430;28;20087;-77
2023/12/23 08:11:14;;;;;;;3.78;3.03;;;9.00;99.90;;;;;;5046261;28;20033;-77
2023/12/23 08:13:41;;;;;;;4.65;4.20;;;8.90;99.90;;;;;;5051629;28;20025;-77
2023/12/23 08:16:07;;;;;;;7.70;5.05;;;8.80;97.50;;;;;;5051267;28;20471;-77
2023/12/23 08:18:33;;;;;;;7.15;5.93;;;8.70;99.90;;;;;;5051097;28;20025;-77
2023/12/23 08:20:59;;;;;;;8.07;5.75;;;8.70;66.00;;;;;;5051276;28;20029;-77
2023/12/23 08:23:24;;;;;;;9.00;7.93;;;8.70;1.00;;;;;;5047427;28;20041;-77
2023/12/23 08:25:50;;;;;;;10.50;7.72;;;8.70;99.90;;;;;;5045602;28;20083;-77
2023/12/23 08:28:16;;;;;;;12.38;8.60;;;8.70;99.90;;;;;;5051226;28;20035;-77
2023/12/23 08:30:42;;;;;;;13.98;7.80;;;8.80;99.90;;;;;;5051074;28;20033;-77
2023/12/23 08:33:07;;;;;;;7.15;6.25;;;8.80;99.90;;;;;;5051191;28;20546;-77
2023/12/23 08:35:33;;;;;;;9.20;5.28;;;8.80;99.90;;;;;;5051170;28;20013;-77
2023/12/23 08:37:59;;;;;;;6.20;5.00;;;8.80;99.90;;;;;;5051312;28;20045;-77
2023/12/23 08:40:25;;;;;;;6.28;5.55;;;8.90;99.90;;;;;;5047098;28;20013;-77
2023/12/23 08:42:51;;;;;;;12.50;6.70;;;8.90;99.90;;;;;;5049534;28;20429;-77
2023/12/23 08:45:17;;;;;;;11.52;8.05;;;8.80;99.90;;;;;;5050644;28;20298;-77
2023/12/23 08:47:43;;;;;;;12.90;7.53;;;8.80;99.90;;;;;;5049900;28;20056;-77
2023/12/23 08:50:09;;;;;;;5.78;5.30;;;8.70;99.90;;;;;;5050634;28;20061;-77
2023/12/23 08:52:35;;;;;;;7.80;5.20;;;8.80;99.90;;;;;;5049062;28;20024;-77
2023/12/23 08:55:01;;;;;;;17.48;9.23;;;8.80;99.90;;;;;;5050707;28;20058;-77
2023/12/23 08:57:27;;;;;;;10.68;8.15;;;8.90;99.90;;;;;;5051024;28;20078;-77
2023/12/23 08:59:53;;;;;;;8.00;3.75;;;8.90;99.90;;;;;;5049889;28;20484;-77
2023/12/23 09:02:19;;;;;;;5.88;2.85;;;9.10;1.00;;;;;;5049678;28;20364;-77
2023/12/23 09:04:44;;;;;;;3.25;2.20;;;9.30;1.00;;;;;;5050886;28;20021;-77
2023/12/23 09:07:10;;;;;;;12.57;1.73;;;9.40;1.00;;;;;;5050793;28;20147;-77
2023/12/23 09:09:36;;;;;;;3.55;1.52;;;9.50;99.90;;;;;;5050758;28;20521;-77
2023/12/23 09:12:02;;;;;;;5.22;1.92;;;9.50;99.90;;;;;;5050694;28;20485;-76
2023/12/23 09:14:29;;;;;;;12.43;4.32;;;9.50;99.90;;;;;;5050827;28;20114;-77
2023/12/23 09:16:55;;;;;;;8.98;3.92;;;9.70;99.90;;;;;;5058972;28;20142;-77
2023/12/23 09:19:20;;;;;;;20.13;7.15;;;9.70;99.90;;;;;;5049689;28;20071;-76
2023/12/23 09:21:46;;;;;;;8.07;3.95;;;9.70;99.90;;;;;;5045298;28;20028;-73
2023/12/23 09:24:12;;;;;;;3.95;3.60;;;9.80;99.90;;;;;;5049630;28;20028;-71
2023/12/23 09:26:37;;;;;;;11.13;5.85;;;9.80;96.70;;;;;;5044231;28;20063;-71
2023/12/23 09:29:03;;;;;;;3.42;3.08;;;9.80;1.00;;;;;;5043773;28;20029;-71
2023/12/23 09:31:30;;;;;;;12.70;4.00;;;9.90;99.90;;;;;;5044211;28;20028;-71
2023/12/23 09:33:56;;;;;;;4.45;4.00;;;9.90;99.90;;;;;;5054898;28;20016;-71
2023/12/23 09:36:22;;;;;;;8.02;3.85;;;10.00;99.90;;;;;;5056623;28;20451;-71
2023/12/23 09:41:37;;;;;;;4.03;3.10;;;10.00;99.90;;;;;;5044526;28;20090;-73
2023/12/23 09:44:02;;;;;;;5.38;3.30;;;10.00;1.00;;;;;;5050621;28;20528;-73
2023/12/23 09:46:28;;;;;;;13.02;4.65;;;10.10;1.00;;;;;;5052234;28;20084;-73
2023/12/23 09:48:54;;;;;;;10.63;3.40;;;10.10;86.90;;;;;;5049753;28;20041;-73
2023/12/23 09:51:25;;;;;;;11.13;3.45;;;10.30;1.00;;;;;;5050300;28;20041;-73
2023/12/23 09:53:58;;;;;;;6.80;3.42;;;10.30;1.00;;;;;;5052279;28;20356;-73
2023/12/23 09:56:27;;;;;;;12.70;6.10;;;10.30;99.90;;;;;;5054036;28;20099;-73
2023/12/23 09:58:56;;;;;;;20.98;11.77;;;10.50;99.90;;;;;;5042387;28;20380;-73
2023/12/23 10:01:25;;;;;;;17.77;10.57;;;10.50;99.90;;;;;;5048299;28;20041;-73
2023/12/23 10:03:56;;;;;;;15.45;8.38;;;10.50;99.90;;;;;;5046634;28;20083;-73
2023/12/23 10:06:59;;;;;;;14.50;7.00;;;10.50;99.90;;;;;;5053333;28;20029;-73
2023/12/23 10:09:44;;;;;;;5.15;4.00;;;10.50;99.90;;;;;;5046545;28;20034;-73
2023/12/23 10:12:23;;;;;;;8.60;4.60;;;10.60;1.00;;;;;;5052211;28;20025;-74
2023/12/23 10:14:49;;;;;;;4.82;4.03;;;10.60;1.00;;;;;;5048307;28;20036;-73
2023/12/23 10:17:56;;;;;;;10.88;7.80;;;10.60;1.00;;;;;;5050611;28;20024;-74
2023/12/23 10:20:22;;;;;;;6.97;6.28;;;10.70;1.00;;;;;;5038419;28;20491;-73
2023/12/23 10:22:49;;;;;;;10.65;5.47;;;10.80;1.00;;;;;;5063789;28;20038;-73
2023/12/23 10:25:14;;;;;;;9.35;4.63;;;10.70;1.00;;;;;;5050235;28;20028;-73
2023/12/23 10:27:41;;;;;;;7.80;5.25;;;10.80;1.00;;;;;;5046809;28;20037;-73
2023/12/23 10:30:11;;;;;;;7.93;4.43;;;10.70;1.00;;;;;;5046214;28;20579;-73
2023/12/23 10:32:38;;;;;;;7.95;4.30;;;10.70;1.00;;;;;;5049397;28;20059;-73
2023/12/23 10:35:07;;;;;;;6.03;3.70;;;10.70;1.00;;;;;;5048222;28;20364;-73
2023/12/23 10:37:40;;;;;;;6.95;3.63;;;10.60;60.70;;;;;;5048369;28;20044;-73
2023/12/23 10:40:20;;;;;;;6.05;4.10;;;10.70;1.00;;;;;;5048327;28;20033;-72
2023/12/23 10:42:48;;;;;;;6.22;4.03;;;10.80;99.90;;;;;;5047821;28;20048;-73
2023/12/23 10:45:14;;;;;;;14.48;4.72;;;10.70;1.00;;;;;;5043820;28;20384;-73
2023/12/23 10:47:41;;;;;;;9.25;4.32;;;10.70;1.00;;;;;;5040465;28;20479;-73
2023/12/23 10:50:09;;;;;;;7.43;4.05;;;10.60;99.90;;;;;;5051595;28;20044;-73
2023/12/23 10:52:36;;;;;;;7.05;3.75;;;10.60;99.90;;;;;;5044686;28;20039;-73
2023/12/23 10:55:03;;;;;;;10.65;4.45;;;10.90;99.90;;;;;;5046776;28;20029;-73
2023/12/23 10:57:31;;;;;;;11.32;4.85;;;10.90;99.90;;;;;;5044329;28;20052;-73
2023/12/23 10:59:57;;;;;;;4.28;3.78;;;11.00;97.80;;;;;;5046173;28;20025;-73
2023/12/23 11:02:28;;;;;;;7.25;4.10;;;11.10;3.30;;;;;;5049172;28;20041;-73
2023/12/23 11:04:55;;;;;;;6.93;3.50;;;11.10;99.90;;;;;;5044153;28;20031;-73
2023/12/23 11:07:30;;;;;;;10.38;3.70;;;11.20;99.90;;;;;;5050276;28;20078;-73
2023/12/23 11:10:01;;;;;;;6.55;3.45;;;11.50;1.00;;;;;;5042046;28;20024;-73
2023/12/23 11:12:30;;;;;;;6.50;3.60;;;11.60;1.00;;;;;;5044817;28;20029;-73
2023/12/23 11:14:58;;;;;;;8.90;4.03;;;11.60;1.00;;;;;;5049098;28;20360;-73
2023/12/23 11:17:26;;;;;;;5.88;3.85;;;11.80;99.90;;;;;;5046054;28;20016;-73
2023/12/23 11:19:54;;;;;;;5.30;3.63;;;11.80;99.90;;;;;;5042678;28;20481;-73
2023/12/23 11:22:24;;;;;;;10.45;4.75;;;11.80;99.90;;;;;;5045164;28;20025;-73
2023/12/23 11:24:50;;;;;;;7.22;3.20;;;11.80;99.90;;;;;;5051803;28;20033;-73
2023/12/23 11:27:31;;;;;;;4.75;3.67;;;11.90;99.90;;;;;;5049658;28;20021;-73
2023/12/23 11:30:05;;;;;;;5.80;3.33;;;11.90;99.90;;;;;;5049556;28;20490;-73
2023/12/23 11:32:44;;;;;;;5.85;3.42;;;11.90;99.90;;;;;;5044931;28;20271;-73
2023/12/23 11:35:14;;;;;;;8.75;3.80;;;11.80;99.90;;;;;;5049693;28;20021;-73
2023/12/23 11:37:58;;;;;;;5.40;3.13;;;11.90;99.90;;;;;;5045549;28;20617;-73
2023/12/23 11:40:25;;;;;;;3.53;3.22;;;11.80;99.90;;;;;;5049048;28;20036;-73
2023/12/23 11:42:52;;;;;;;8.85;3.70;;;11.90;1.00;;;;;;5048648;28;20040;-73
2023/12/23 11:45:18;;;;;;;4.13;3.45;;;11.90;1.00;;;;;;5052010;28;20049;-73
2023/12/23 11:47:43;;;;;;;3.78;3.47;;;11.90;1.00;;;;;;5047027;28;20086;-73
2023/12/23 11:50:09;;;;;;;5.18;4.07;;;12.00;99.90;;;;;;5050898;28;20490;-73
2023/12/23 11:52:36;;;;;;;4.47;3.10;;;12.00;99.90;;;;;;5049364;28;20033;-73
2023/12/23 11:55:04;;;;;;;10.57;3.38;;;12.20;99.90;;;;;;5052785;28;20104;-73
2023/12/23 11:57:31;;;;;;;9.75;3.40;;;12.20;1.00;;;;;;5049298;28;20718;-73
2023/12/23 11:59:58;;;;;;;4.28;3.88;;;12.30;99.90;;;;;;5052167;28;20060;-73
2023/12/23 12:02:25;;;;;;;9.73;4.30;;;12.30;1.00;;;;;;5049178;28;20029;-73
2023/12/23 12:04:51;;;;;;;20.02;5.15;;;12.50;99.90;;;;;;5057843;28;20489;-73
2023/12/23 12:07:19;;;;;;;66.75;25.95;;;12.70;99.90;;;;;;5047643;28;20029;-73
2023/12/23 12:09:46;;;;;;;118.88;51.80;;;12.80;99.90;;;;;;5048767;28;20021;-74
2023/12/23 12:12:12;;;;;;;88.88;39.53;;;12.90;99.90;;;;;;5049127;28;20025;-73
2023/12/23 12:14:38;;;;;;;6.32;4.45;;;12.90;99.90;;;;;;5051168;28;20576;-73
2023/12/23 12:17:03;;;;;;;4.13;2.25;;;13.00;1.00;;;;;;5039658;28;20068;-71
2023/12/23 12:19:29;;;;;;;1.55;1.00;;;13.20;1.00;;;;;;5051451;28;20648;-72
2023/12/23 12:21:55;;;;;;;1.30;0.60;;;13.40;99.90;;;;;;5045047;28;20061;-71
2023/12/23 12:24:20;;;;;;;1.23;0.90;;;13.50;99.90;;;;;;5047257;28;20119;-72
2023/12/23 12:26:52;;;;;;;0.82;0.82;;;13.60;99.90;;;;;;5050640;28;20035;-71
2023/12/23 12:29:19;;;;;;;1.25;0.57;;;13.70;99.90;;;;;;5051820;28;20028;-71
2023/12/23 12:31:45;;;;;;;0.85;0.60;;;13.70;99.90;;;;;;5057585;28;20029;-72
2023/12/23 12:34:12;;;;;;;2.05;0.80;;;13.80;99.90;;;;;;5046959;28;20025;-72
2023/12/23 12:36:38;;;;;;;0.70;0.70;;;13.90;99.90;;;;;;5049059;28;20918;-72
2023/12/23 12:39:04;;;;;;;3.38;1.23;;;13.90;99.90;;;;;;5050295;28;20104;-71
2023/12/23 12:41:29;;;;;;;1.85;0.93;;;13.80;99.90;;;;;;5045277;28;20487;-71
2023/12/23 12:43:55;;;;;;;0.95;0.95;;;13.80;99.90;;;;;;5051566;28;20037;-72
2023/12/23 12:46:21;;;;;;;2.65;0.70;;;14.00;99.90;;;;;;5050251;28;20286;-71
2023/12/23 12:48:49;;;;;;;0.52;0.52;;;14.10;99.90;;;;;;5051768;28;20033;-72
2023/12/23 12:51:18;;;;;;;0.52;0.52;;;14.20;99.90;;;;;;5045176;28;20085;-74
2023/12/23 12:53:46;;;;;;;0.90;0.90;;;14.30;99.90;;;;;;5047798;28;20021;-74
2023/12/23 12:56:12;;;;;;;0.70;0.70;;;14.30;99.90;;;;;;5042354;28;20356;-72